DLH256 EDDP-EDDH
Flight info
| Callsign | DLH256 |
|---|---|
| Flight time | 0h 37m |
| Altitude | 30000 |
| Route | PENEM1S/26L PENEM Y233 ODLUN Z207 MAG M736 SOGMA M748 ERNUD M726 BKD L619 BUMIL M748 RARUP RARU3P EDDH/23 |
| Aircraft | E190/M-L/C |
Departure
| Time | 2026-04-24 18:55 |
|---|---|
| Airport | Leipzig/Halle Airport (EDDP) |
Arrival
| Time | 2026-04-24 19:33 |
|---|---|
| Airport | Hamburg Helmut Schmidt Airport (EDDH) |
| Time | Latitude | Longitude | Altitude | Speed | Heading |
|---|---|---|---|---|---|
| 2026-04-24 18:54 | 51.41385 | 12.25521 | 463 ft | 11 kts | 301° |
| 2026-04-24 18:55 | 51.41358 | 12.24678 | 452 ft | 108 kts | 267° |
| 2026-04-24 18:55 | 51.41288 | 12.23107 | 557 ft | 168 kts | 268° |
| 2026-04-24 18:55 | 51.41192 | 12.21152 | 1280 ft | 179 kts | 268° |
| 2026-04-24 18:56 | 51.41106 | 12.19415 | 1779 ft | 143 kts | 270° |
| 2026-04-24 18:56 | 51.41029 | 12.17673 | 1941 ft | 176 kts | 269° |
| 2026-04-24 18:56 | 51.40931 | 12.15553 | 2454 ft | 204 kts | 268° |
| 2026-04-24 18:56 | 51.40820 | 12.13206 | 3216 ft | 222 kts | 268° |
| 2026-04-24 18:57 | 51.40826 | 12.10805 | 4262 ft | 222 kts | 289° |
| 2026-04-24 18:57 | 51.41695 | 12.08944 | 5390 ft | 216 kts | 329° |
| 2026-04-24 18:57 | 51.43202 | 12.08325 | 6062 ft | 236 kts | 356° |
| 2026-04-24 18:57 | 51.44877 | 12.08274 | 6790 ft | 252 kts | 358° |
| 2026-04-24 18:58 | 51.46652 | 12.08249 | 7693 ft | 260 kts | 358° |
| 2026-04-24 18:58 | 51.48450 | 12.08236 | 8707 ft | 262 kts | 358° |
| 2026-04-24 18:58 | 51.50264 | 12.08229 | 9713 ft | 262 kts | 358° |
| 2026-04-24 18:58 | 51.52051 | 12.08225 | 10420 ft | 263 kts | 358° |
| 2026-04-24 18:59 | 51.53889 | 12.08248 | 11101 ft | 275 kts | 359° |
| 2026-04-24 18:59 | 51.55834 | 12.08315 | 11772 ft | 286 kts | 359° |
| 2026-04-24 18:59 | 51.57858 | 12.08385 | 12423 ft | 298 kts | 359° |
| 2026-04-24 18:59 | 51.59953 | 12.08459 | 13125 ft | 306 kts | 359° |
| 2026-04-24 19:00 | 51.62094 | 12.08535 | 13901 ft | 312 kts | 359° |
| 2026-04-24 19:00 | 51.64267 | 12.08612 | 14702 ft | 316 kts | 358° |
| 2026-04-24 19:00 | 51.66464 | 12.08690 | 15505 ft | 319 kts | 358° |
| 2026-04-24 19:00 | 51.68657 | 12.08766 | 16256 ft | 323 kts | 357° |
| 2026-04-24 19:01 | 51.70829 | 12.08072 | 16916 ft | 322 kts | 331° |
| 2026-04-24 19:01 | 51.72574 | 12.05851 | 17613 ft | 324 kts | 313° |
| 2026-04-24 19:01 | 51.74110 | 12.03193 | 18360 ft | 327 kts | 312° |
| 2026-04-24 19:01 | 51.75628 | 12.00531 | 19098 ft | 330 kts | 311° |
| 2026-04-24 19:02 | 51.76675 | 11.98685 | 19596 ft | 332 kts | 312° |
| 2026-04-24 19:02 | 51.78701 | 11.95104 | 20046 ft | 323 kts | 311° |
| 2026-04-24 19:02 | 51.80258 | 11.92346 | 20246 ft | 341 kts | 311° |
| 2026-04-24 19:02 | 51.81846 | 11.89529 | 20873 ft | 346 kts | 311° |
| 2026-04-24 19:03 | 51.83454 | 11.86671 | 21686 ft | 345 kts | 311° |
| 2026-04-24 19:03 | 51.85278 | 11.84218 | 22473 ft | 347 kts | 331° |
| 2026-04-24 19:03 | 51.87597 | 11.83093 | 23196 ft | 353 kts | 345° |
| 2026-04-24 19:03 | 51.90017 | 11.82335 | 23834 ft | 356 kts | 345° |
| 2026-04-24 19:04 | 51.92462 | 11.81583 | 24419 ft | 360 kts | 345° |
| 2026-04-24 19:04 | 51.94935 | 11.80827 | 24992 ft | 365 kts | 345° |
| 2026-04-24 19:04 | 51.97404 | 11.80072 | 25552 ft | 369 kts | 345° |
| 2026-04-24 19:04 | 51.99967 | 11.79580 | 26090 ft | 380 kts | 358° |
| 2026-04-24 19:05 | 52.02619 | 11.79968 | 26663 ft | 386 kts | 1° |
| 2026-04-24 19:05 | 52.05298 | 11.80423 | 27228 ft | 390 kts | 1° |
| 2026-04-24 19:05 | 52.08001 | 11.80885 | 27803 ft | 393 kts | 0° |
| 2026-04-24 19:05 | 52.10695 | 11.81347 | 28381 ft | 396 kts | 0° |
| 2026-04-24 19:06 | 52.13446 | 11.81819 | 28936 ft | 400 kts | 0° |
| 2026-04-24 19:06 | 52.16220 | 11.82296 | 29495 ft | 404 kts | 0° |
| 2026-04-24 19:06 | 52.19017 | 11.82777 | 29989 ft | 404 kts | 0° |
| 2026-04-24 19:07 | 52.24706 | 11.83757 | 30098 ft | 426 kts | 0° |
| 2026-04-24 19:07 | 52.27693 | 11.84276 | 30094 ft | 437 kts | 1° |
| 2026-04-24 19:07 | 52.29696 | 11.84625 | 30091 ft | 439 kts | 1° |
| 2026-04-24 19:08 | 52.34767 | 11.85509 | 30082 ft | 437 kts | 1° |
| 2026-04-24 19:08 | 52.39339 | 11.86304 | 30088 ft | 437 kts | 1° |
| 2026-04-24 19:09 | 52.45377 | 11.87357 | 30080 ft | 436 kts | 0° |
| 2026-04-24 19:09 | 52.51411 | 11.88411 | 30080 ft | 437 kts | 0° |
| 2026-04-24 19:10 | 52.57407 | 11.89436 | 30074 ft | 434 kts | 358° |
| 2026-04-24 19:10 | 52.63281 | 11.88362 | 30076 ft | 415 kts | 339° |
| 2026-04-24 19:10 | 52.65953 | 11.86806 | 30072 ft | 403 kts | 331° |
| 2026-04-24 19:11 | 52.68370 | 11.84561 | 30084 ft | 398 kts | 321° |
| 2026-04-24 19:11 | 52.72681 | 11.79004 | 30084 ft | 397 kts | 319° |
| 2026-04-24 19:12 | 52.77142 | 11.73650 | 30082 ft | 400 kts | 326° |
| 2026-04-24 19:12 | 52.79581 | 11.71411 | 29908 ft | 401 kts | 327° |
| 2026-04-24 19:12 | 52.81977 | 11.69086 | 29667 ft | 398 kts | 325° |
| 2026-04-24 19:12 | 52.84346 | 11.66725 | 29225 ft | 398 kts | 325° |
| 2026-04-24 19:13 | 52.85904 | 11.65162 | 28882 ft | 395 kts | 325° |
| 2026-04-24 19:13 | 52.88986 | 11.62065 | 28175 ft | 390 kts | 325° |
| 2026-04-24 19:13 | 52.91289 | 11.59750 | 27642 ft | 386 kts | 325° |
| 2026-04-24 19:13 | 52.93565 | 11.57450 | 27109 ft | 383 kts | 325° |
| 2026-04-24 19:14 | 52.95820 | 11.55157 | 26581 ft | 379 kts | 325° |
| 2026-04-24 19:14 | 52.98025 | 11.52909 | 26055 ft | 377 kts | 325° |
| 2026-04-24 19:14 | 53.00241 | 11.50641 | 25528 ft | 374 kts | 325° |
| 2026-04-24 19:14 | 53.02437 | 11.48387 | 25000 ft | 371 kts | 325° |
| 2026-04-24 19:15 | 53.04564 | 11.46028 | 24471 ft | 366 kts | 315° |
| 2026-04-24 19:15 | 53.06021 | 11.42672 | 23995 ft | 359 kts | 295° |
| 2026-04-24 19:15 | 53.07334 | 11.39161 | 23512 ft | 361 kts | 310° |
| 2026-04-24 19:15 | 53.09119 | 11.36322 | 23044 ft | 361 kts | 317° |
| 2026-04-24 19:16 | 53.13031 | 11.31208 | 22071 ft | 357 kts | 320° |
| 2026-04-24 19:16 | 53.15013 | 11.28750 | 21423 ft | 355 kts | 321° |
| 2026-04-24 19:16 | 53.16983 | 11.26326 | 20783 ft | 352 kts | 321° |
| 2026-04-24 19:17 | 53.18942 | 11.23922 | 20146 ft | 349 kts | 321° |
| 2026-04-24 19:17 | 53.20851 | 11.21579 | 19481 ft | 342 kts | 322° |
| 2026-04-24 19:17 | 53.22718 | 11.19286 | 18787 ft | 327 kts | 322° |
| 2026-04-24 19:17 | 53.24520 | 11.17070 | 18141 ft | 321 kts | 322° |
| 2026-04-24 19:18 | 53.26312 | 11.14865 | 17517 ft | 320 kts | 322° |
| 2026-04-24 19:18 | 53.28093 | 11.12671 | 16897 ft | 318 kts | 322° |
| 2026-04-24 19:18 | 53.29857 | 11.10495 | 16268 ft | 315 kts | 322° |
| 2026-04-24 19:18 | 53.31590 | 11.08356 | 15647 ft | 312 kts | 323° |
| 2026-04-24 19:19 | 53.33349 | 11.06182 | 15005 ft | 308 kts | 323° |
| 2026-04-24 19:19 | 53.35062 | 11.04063 | 14396 ft | 306 kts | 323° |
| 2026-04-24 19:19 | 53.36047 | 11.02844 | 14015 ft | 303 kts | 323° |
| 2026-04-24 19:19 | 53.37721 | 11.00769 | 13384 ft | 299 kts | 323° |
| 2026-04-24 19:20 | 53.39378 | 10.98714 | 12754 ft | 296 kts | 323° |
| 2026-04-24 19:20 | 53.41021 | 10.96675 | 12122 ft | 292 kts | 323° |
| 2026-04-24 19:20 | 53.42625 | 10.94682 | 11499 ft | 290 kts | 323° |
| 2026-04-24 19:20 | 53.44222 | 10.92694 | 10856 ft | 282 kts | 324° |
| 2026-04-24 19:21 | 53.45772 | 10.90765 | 10267 ft | 276 kts | 324° |
| 2026-04-24 19:21 | 53.47279 | 10.88887 | 10103 ft | 264 kts | 324° |
| 2026-04-24 19:21 | 53.48759 | 10.87041 | 10087 ft | 266 kts | 324° |
| 2026-04-24 19:21 | 53.50255 | 10.85173 | 10080 ft | 270 kts | 324° |
| 2026-04-24 19:22 | 53.51255 | 10.83924 | 10077 ft | 269 kts | 324° |
| 2026-04-24 19:22 | 53.53196 | 10.81497 | 10062 ft | 259 kts | 324° |
| 2026-04-24 19:22 | 53.54644 | 10.79684 | 9668 ft | 260 kts | 324° |
| 2026-04-24 19:22 | 53.56081 | 10.77884 | 9239 ft | 257 kts | 324° |
| 2026-04-24 19:23 | 53.57508 | 10.76094 | 8839 ft | 255 kts | 324° |
| 2026-04-24 19:23 | 53.58929 | 10.74311 | 8442 ft | 255 kts | 324° |
| 2026-04-24 19:23 | 53.60326 | 10.72560 | 8046 ft | 253 kts | 324° |
| 2026-04-24 19:23 | 53.61736 | 10.70797 | 7590 ft | 253 kts | 324° |
| 2026-04-24 19:24 | 53.63133 | 10.69034 | 7094 ft | 251 kts | 324° |
| 2026-04-24 19:24 | 53.64521 | 10.67278 | 6604 ft | 249 kts | 324° |
| 2026-04-24 19:24 | 53.65900 | 10.65536 | 6130 ft | 247 kts | 324° |
| 2026-04-24 19:24 | 53.67262 | 10.63809 | 5645 ft | 245 kts | 324° |
| 2026-04-24 19:25 | 53.68598 | 10.62121 | 5156 ft | 243 kts | 324° |
| 2026-04-24 19:25 | 53.69939 | 10.60427 | 4939 ft | 240 kts | 324° |
| 2026-04-24 19:25 | 53.71272 | 10.58735 | 4971 ft | 241 kts | 324° |
| 2026-04-24 19:25 | 53.72614 | 10.57033 | 4928 ft | 240 kts | 324° |
| 2026-04-24 19:26 | 53.73946 | 10.55341 | 4929 ft | 240 kts | 324° |
| 2026-04-24 19:26 | 53.75285 | 10.53646 | 4927 ft | 239 kts | 324° |
| 2026-04-24 19:26 | 53.76604 | 10.51974 | 4924 ft | 241 kts | 324° |
| 2026-04-24 19:26 | 53.77916 | 10.50212 | 4915 ft | 242 kts | 313° |
| 2026-04-24 19:27 | 53.78582 | 10.47598 | 4942 ft | 251 kts | 278° |
| 2026-04-24 19:27 | 53.78401 | 10.44704 | 4751 ft | 246 kts | 265° |
| 2026-04-24 19:27 | 53.78078 | 10.41862 | 4240 ft | 248 kts | 265° |
| 2026-04-24 19:27 | 53.77747 | 10.38962 | 3966 ft | 254 kts | 265° |
| 2026-04-24 19:28 | 53.77416 | 10.36055 | 3941 ft | 255 kts | 265° |
| 2026-04-24 19:28 | 53.77074 | 10.33103 | 3939 ft | 255 kts | 264° |
| 2026-04-24 19:28 | 53.76730 | 10.30151 | 3937 ft | 256 kts | 264° |
| 2026-04-24 19:28 | 53.76380 | 10.27210 | 3939 ft | 255 kts | 264° |
| 2026-04-24 19:29 | 53.74459 | 10.22022 | 3451 ft | 261 kts | 236° |
| 2026-04-24 19:29 | 53.73347 | 10.19772 | 3125 ft | 241 kts | 237° |
| 2026-04-24 19:29 | 53.72303 | 10.17650 | 2823 ft | 222 kts | 238° |
| 2026-04-24 19:30 | 53.71314 | 10.15631 | 2490 ft | 207 kts | 238° |
| 2026-04-24 19:30 | 53.70394 | 10.13757 | 2187 ft | 193 kts | 238° |
| 2026-04-24 19:30 | 53.69526 | 10.11987 | 1932 ft | 183 kts | 239° |
| 2026-04-24 19:30 | 53.68703 | 10.10315 | 1678 ft | 170 kts | 239° |
| 2026-04-24 19:31 | 53.67911 | 10.08697 | 1422 ft | 170 kts | 238° |
| 2026-04-24 19:31 | 53.67181 | 10.07224 | 1206 ft | 153 kts | 238° |
| 2026-04-24 19:31 | 53.66497 | 10.05832 | 978 ft | 141 kts | 237° |
| 2026-04-24 19:31 | 53.65852 | 10.04521 | 764 ft | 138 kts | 237° |
| 2026-04-24 19:32 | 53.65238 | 10.03277 | 595 ft | 126 kts | 236° |
| 2026-04-24 19:32 | 53.64669 | 10.02121 | 441 ft | 125 kts | 235° |
| 2026-04-24 19:32 | 53.64075 | 10.00931 | 211 ft | 125 kts | 237° |
| 2026-04-24 19:32 | 53.63505 | 9.99770 | 51 ft | 126 kts | 234° |
| 2026-04-24 19:33 | 53.62971 | 9.98683 | 37 ft | 96 kts | 230° |
| 2026-04-24 19:33 | 53.62627 | 9.97982 | 30 ft | 55 kts | 229° |
| 2026-04-24 19:33 | 53.62468 | 9.97807 | 28 ft | 14 kts | 162° |
| 2026-04-24 19:33 | 53.62431 | 9.97904 | 30 ft | 9 kts | 88° |
| 2026-04-24 19:34 | 53.62439 | 9.97983 | 31 ft | 3 kts | 79° |
| 2026-04-24 19:34 | 53.62442 | 9.98006 | 32 ft | 0 kts | 78° |
| 2026-04-24 19:34 | 53.62443 | 9.98014 | 32 ft | 2 kts | 76° |
| 2026-04-24 19:35 | 53.62460 | 9.98077 | 34 ft | 9 kts | 58° |
| 2026-04-24 19:35 | 53.62510 | 9.98187 | 34 ft | 12 kts | 50° |
| 2026-04-24 19:35 | 53.62566 | 9.98301 | 36 ft | 12 kts | 51° |
| 2026-04-24 19:35 | 53.62631 | 9.98434 | 36 ft | 14 kts | 51° |
| 2026-04-24 19:36 | 53.62701 | 9.98574 | 37 ft | 16 kts | 49° |
| 2026-04-24 19:36 | 53.62779 | 9.98729 | 37 ft | 17 kts | 50° |
| 2026-04-24 19:36 | 53.62860 | 9.98890 | 37 ft | 18 kts | 50° |
| 2026-04-24 19:36 | 53.62928 | 9.99030 | 35 ft | 14 kts | 51° |
| 2026-04-24 19:37 | 53.62974 | 9.99126 | 34 ft | 4 kts | 50° |
| 2026-04-24 19:37 | 53.63010 | 9.99198 | 33 ft | 11 kts | 50° |
| 2026-04-24 19:37 | 53.63060 | 9.99307 | 31 ft | 9 kts | 53° |
| 2026-04-24 19:37 | 53.63080 | 9.99352 | 30 ft | 0 kts | 54° |
| 2026-04-24 19:38 | 53.63089 | 9.99375 | 30 ft | 4 kts | 53° |
| 2026-04-24 19:38 | 53.63119 | 9.99443 | 30 ft | 9 kts | 53° |
| 2026-04-24 19:38 | 53.63147 | 9.99508 | 30 ft | 6 kts | 54° |
| 2026-04-24 19:38 | 53.63175 | 9.99572 | 30 ft | 5 kts | 52° |
| 2026-04-24 19:39 | 53.63187 | 9.99598 | 30 ft | 2 kts | 51° |
| 2026-04-24 19:39 | 53.63205 | 9.99634 | 30 ft | 5 kts | 50° |
| 2026-04-24 19:39 | 53.63250 | 9.99714 | 29 ft | 13 kts | 44° |
| 2026-04-24 19:39 | 53.63317 | 9.99839 | 30 ft | 13 kts | 50° |
| 2026-04-24 19:40 | 53.63375 | 9.99955 | 32 ft | 11 kts | 50° |
| 2026-04-24 19:40 | 53.63417 | 10.00041 | 35 ft | 6 kts | 52° |
| 2026-04-24 19:40 | 53.63432 | 10.00096 | 38 ft | 4 kts | 86° |
| 2026-04-24 19:40 | 53.63412 | 10.00150 | 38 ft | 6 kts | 151° |
| 2026-04-24 19:41 | 53.63351 | 10.00166 | 37 ft | 12 kts | 176° |
| 2026-04-24 19:41 | 53.63271 | 10.00174 | 36 ft | 7 kts | 181° |
| 2026-04-24 19:41 | 53.63238 | 10.00151 | 34 ft | 1 kts | 220° |
| 2026-04-24 19:41 | 53.63231 | 10.00136 | 34 ft | 0 kts | 248° |
| 2026-04-24 19:42 | 53.63232 | 10.00118 | 33 ft | 3 kts | 294° |
| 2026-04-24 19:42 | 53.63242 | 10.00095 | 32 ft | 1 kts | 311° |
| 2026-04-24 19:42 | 53.63257 | 10.00074 | 32 ft | 0 kts | 318° |
| 2026-04-24 19:42 | 53.63262 | 10.00067 | 32 ft | 0 kts | 321° |